Maywood Park, Oregon
Current Conditions -  °F | °C
As of 7:53 PM on Monday 22 Dec 2014 (Local Time) from KPDX Reporting Station
Scattered Clouds Scattered Clouds  
Wind Chill: 41°   Ceiling: Unl
Heat Index: 45°   Visibility: 10mi
Dew Point: 44°   Wind: 8mph
Humidity: 97%   Direction: 80°E
Pressure: 30.35"   Gusts: NA
Location:  45.5492°N, 122.558°W
Report Text: KPDX 230353Z 08007KT 10SM FEW013 SCT110 07/07 A3035 RMK AO2 SLP275 T00720067
Loading
Personal Weather Stations






























Interactive Weather Map New forecast layout! Learn more

10-Day Weather Forecast

Advertisements
Track Severe Weather on mobile